Time;durP1;ratioP1;P1;durP2;ratioP2;P2;SDS_P1;SDS_P2;PMS_P1;PMS_P2;Temp;Humidity;BMP_temperature;BMP_pressure;BME280_temperature;BME280_humidity;BME280_pressure;Samples;Min_cycle;Max_cycle;Signal;HPM_P1;HPM_P2
2022/11/17 00:01:18;;;;;;;;;;;;;;;0.48;96.79;98559.89;106444;1290;140368;-54
2022/11/17 00:03:46;;;;;;;4.30;3.00;;;;;;;0.49;96.69;98553.20;106554;1305;22189;-53
2022/11/17 00:06:13;;;;;;;3.60;2.60;;;;;;;0.49;96.73;98562.11;106446;1305;138924;-53
2022/11/17 00:08:39;;;;;;;;;;;;;;;0.48;96.57;98560.10;106584;1305;22384;-53
2022/11/17 00:11:06;;;;;;;4.10;2.80;;;;;;;0.47;96.66;98560.67;106564;1290;22340;-54
2022/11/17 00:16:19;;;;;;;3.30;2.60;;;;;;;0.44;96.74;98561.57;106534;1297;23374;-54
2022/11/17 00:21:31;;;;;;;3.90;3.10;;;;;;;0.41;96.65;98565.56;106635;1305;22445;-54
2022/11/17 00:23:58;;;;;;;;;;;;;;;0.40;96.28;98564.61;106579;1305;137623;-53
2022/11/17 00:26:26;;;;;;;4.10;3.10;;;;;;;0.37;96.41;98558.27;106543;1305;22234;-54
2022/11/17 00:28:58;;;;;;;3.90;3.10;;;;;;;0.33;96.58;98560.85;106644;1304;22221;-53
2022/11/17 00:34:28;;;;;;;4.90;3.80;;;;;;;0.29;96.30;98565.41;106704;1305;22174;-54
2022/11/17 00:36:55;;;;;;;;;;;;;;;0.27;96.50;98565.15;106450;1297;138871;-54
2022/11/17 00:39:22;;;;;;;4.80;3.50;;;;;;;0.25;96.41;98557.66;106498;1305;22367;-54
2022/11/17 00:41:49;;;;;;;4.90;3.30;;;;;;;0.23;96.36;98553.75;106537;1305;138071;-54
2022/11/17 00:44:16;;;;;;;3.80;3.10;;;;;;;0.22;96.34;98547.75;106616;1297;22130;-53
2022/11/17 00:46:43;;;;;;;;;;;;;;;0.21;96.60;98551.49;106569;1305;22341;-54
2022/11/17 00:49:10;;;;;;;5.50;3.90;;;;;;;0.22;96.52;98552.07;106480;1304;124049;-54
2022/11/17 00:51:37;;;;;;;6.90;4.30;;;;;;;0.22;96.57;98552.52;106598;1305;22217;-55
2022/11/17 00:54:03;;;;;;;;;;;;;;;0.22;96.59;98551.87;106487;1305;139376;-52
2022/11/17 00:56:30;;;;;;;6.30;5.00;;;;;;;0.20;96.97;98549.69;106587;1297;22182;-53
2022/11/17 00:58:57;;;;;;;6.10;4.70;;;;;;;0.20;97.29;98547.46;106709;1304;22272;-54
2022/11/17 01:01:24;;;;;;;5.80;4.60;;;;;;;0.18;97.18;98544.01;106440;1305;138321;-54
2022/11/17 01:04:01;;;;;;;;;;;;;;;0.15;97.13;98545.02;106531;1296;22346;-54
2022/11/17 01:06:39;;;;;;;4.90;3.70;;;;;;;0.14;97.30;98546.73;106454;1305;125242;-54
2022/11/17 01:09:20;;;;;;;7.70;5.10;;;;;;;0.12;97.43;98542.98;106559;1305;22181;-53
2022/11/17 01:11:48;;;;;;;8.80;5.40;;;;;;;0.11;97.43;98544.02;106419;1297;138761;-53
2022/11/17 01:14:17;;;;;;;6.90;5.20;;;;;;;0.14;97.66;98543.89;106548;1305;22139;-53
2022/11/17 01:16:44;;;;;;;8.70;6.10;;;;;;;0.14;97.42;98545.36;106560;1305;22140;-53
2022/11/17 01:19:11;;;;;;;;;;;;;;;0.15;97.44;98545.95;106523;1305;138383;-53
2022/11/17 01:21:37;;;;;;;6.30;5.20;;;;;;;0.16;97.42;98547.64;106546;1299;22226;-53
2022/11/17 01:24:04;;;;;;;6.30;5.00;;;;;;;0.16;97.63;98552.42;106389;1305;138424;-53
2022/11/17 01:26:33;;;;;;;6.80;5.00;;;;;;;0.16;97.40;98551.52;106633;1306;22206;-53
2022/11/17 01:31:42;;;;;;;7.40;5.20;;;;;;;0.17;97.30;98555.02;99337;1333;545002;-52
2022/11/17 01:34:09;;;;;;;7.70;5.90;;;;;;;0.14;97.19;98556.77;101090;1325;25634;-53
2022/11/17 01:39:25;;;;;;;6.60;5.60;;;;;;;0.13;96.88;98559.46;101033;1317;26038;-52
2022/11/17 01:41:52;;;;;;;9.50;6.60;;;;;;;0.10;96.74;98554.86;105396;1315;137322;-52
2022/11/17 01:44:40;;;;;;;7.30;6.20;;;;;;;0.08;96.52;98556.52;105415;1315;236956;-53
2022/11/17 01:47:12;;;;;;;7.60;6.20;;;;;;;0.04;96.47;98562.88;105846;1314;22168;-53
2022/11/17 01:49:39;;;;;;;7.50;6.10;;;;;;;0.03;96.54;98560.41;105613;1310;139385;-53
2022/11/17 01:52:06;;;;;;;;;;;;;;;0.03;96.41;98562.50;105886;1307;22371;-53
2022/11/17 01:54:34;;;;;;;8.70;6.30;;;;;;;0.03;96.41;98561.02;105719;1307;123637;-53
2022/11/17 01:57:03;;;;;;;8.70;6.00;;;;;;;0.03;96.29;98556.25;102240;1318;25271;-53
2022/11/17 01:59:36;;;;;;;8.00;6.40;;;;;;;0.04;96.32;98555.71;101794;1294;22479;-52
2022/11/17 02:02:03;;;;;;;9.70;7.00;;;;;;;0.06;96.45;98556.89;101733;1304;24073;-53
2022/11/17 02:04:39;;;;;;;7.60;6.00;;;;;;;0.05;96.55;98559.16;101776;1308;24483;-53
2022/11/17 02:07:19;;;;;;;8.80;6.90;;;;;;;0.02;96.25;98560.11;106206;1294;137920;-53
2022/11/17 02:09:45;;;;;;;10.40;7.20;;;;;;;0.00;96.25;98554.50;106085;1311;22137;-53
2022/11/17 02:12:12;;;;;;;9.50;7.10;;;;;;;-0.02;96.05;98554.98;106084;1311;138398;-53
2022/11/17 02:14:39;;;;;;;8.10;6.60;;;;;;;-0.03;96.21;98557.48;106172;1305;22286;-53
2022/11/17 02:17:06;;;;;;;;;;;;;;;-0.04;96.14;98560.41;106164;1295;22355;-53
2022/11/17 02:19:40;;;;;;;8.80;7.20;;;;;;;-0.05;96.07;98562.15;106119;1309;123894;-53
2022/11/17 02:22:38;;;;;;;8.60;7.10;;;;;;;-0.05;96.17;98558.45;105930;1304;22107;-53
2022/11/17 02:25:27;;;;;;;8.10;6.50;;;;;;;-0.06;95.91;98554.08;106042;1309;138596;-53
2022/11/17 02:28:33;;;;;;;7.10;5.00;;;;;;;-0.06;95.94;98554.33;106177;1309;22136;-53
2022/11/17 02:31:24;;;;;;;9.20;6.60;;;;;;;-0.08;95.69;98556.84;105945;1310;138747;-53
2022/11/17 02:34:12;;;;;;;9.60;6.60;;;;;;;-0.10;95.54;98557.27;106119;1310;22133;-54
2022/11/17 02:36:55;;;;;;;;;;;;;;;-0.13;95.57;98564.03;106037;1287;138235;-53
2022/11/17 02:39:43;;;;;;;9.20;6.60;;;;;;;-0.18;95.22;98559.95;106203;1309;22123;-53
2022/11/17 02:42:15;;;;;;;8.30;6.60;;;;;;;-0.21;95.39;98558.77;106323;1308;138984;-53
2022/11/17 02:44:46;;;;;;;8.90;6.90;;;;;;;-0.23;95.17;98556.42;106374;1308;22186;-53
2022/11/17 02:47:22;;;;;;;9.90;7.80;;;;;;;-0.26;94.95;98555.67;106342;1284;22264;-53
2022/11/17 02:49:52;;;;;;;7.40;6.00;;;;;;;-0.29;94.93;98558.38;106161;1302;139634;-53
2022/11/17 02:52:19;;;;;;;9.00;7.00;;;;;;;-0.31;94.93;98561.82;106318;1309;22170;-53
2022/11/17 02:54:46;;;;;;;9.90;7.20;;;;;;;-0.32;94.83;98558.85;106221;1309;138675;-55
2022/11/17 02:57:29;;;;;;;;;;;;;;;-0.31;94.87;98555.31;106499;1309;22364;-53
2022/11/17 03:00:00;;;;;;;10.20;7.30;;;;;;;-0.29;94.85;98560.94;106375;1299;124003;-54
2022/11/17 03:02:59;;;;;;;9.60;7.30;;;;;;;-0.30;94.85;98562.64;106421;1306;22202;-53
2022/11/17 03:05:35;;;;;;;;;;;;;;;-0.32;94.54;98562.97;106478;1306;23553;-53
2022/11/17 03:08:39;;;;;;;10.50;8.20;;;;;;;-0.33;94.60;98564.62;106512;1306;22130;-54
2022/11/17 03:11:06;;;;;;;10.20;7.60;;;;;;;-0.34;94.63;98566.92;106502;1299;22416;-53
2022/11/17 03:14:04;;;;;;;9.20;7.20;;;;;;;-0.34;94.54;98566.14;106152;1305;137636;-54
2022/11/17 03:16:36;;;;;;;12.10;7.40;;;;;;;-0.36;94.43;98569.56;105753;1298;22362;-53
2022/11/17 03:19:26;;;;;;;8.90;7.30;;;;;;;-0.37;94.48;98566.23;105704;1313;138982;-53
2022/11/17 03:22:02;;;;;;;9.60;7.00;;;;;;;-0.37;94.41;98565.08;105836;1311;22202;-54
2022/11/17 03:24:32;;;;;;;10.10;7.50;;;;;;;-0.37;94.12;98570.02;105747;1313;137682;-54
2022/11/17 03:27:20;;;;;;;10.00;7.70;;;;;;;-0.38;94.34;98570.77;105848;1312;22294;-53
2022/11/17 03:29:49;;;;;;;11.20;8.90;;;;;;;-0.39;94.41;98572.58;105852;1312;138477;-53
2022/11/17 03:32:16;;;;;;;10.00;7.20;;;;;;;-0.38;94.49;98573.52;105834;1313;22217;-53
2022/11/17 03:35:00;;;;;;;10.60;7.00;;;;;;;-0.37;93.93;98564.83;105708;1311;22277;-54
2022/11/17 03:37:27;;;;;;;11.00;8.10;;;;;;;-0.39;94.00;98563.27;101505;1318;140102;-53
2022/11/17 03:39:58;;;;;;;10.60;7.70;;;;;;;-0.41;93.90;98558.98;105983;1311;22272;-54
2022/11/17 03:42:27;;;;;;;10.80;8.10;;;;;;;-0.41;93.99;98554.75;105727;1313;140016;-54
2022/11/17 03:45:01;;;;;;;12.10;9.40;;;;;;;-0.42;94.17;98552.16;105880;1312;22335;-54
2022/11/17 03:47:27;;;;;;;11.70;8.60;;;;;;;-0.44;94.04;98555.00;105814;1313;22190;-54
2022/11/17 03:50:13;;;;;;;11.50;8.20;;;;;;;-0.45;93.99;98558.12;105597;1312;138631;-53
2022/11/17 03:52:39;;;;;;;12.30;8.50;;;;;;;-0.48;93.88;98558.38;105976;1312;23340;-54
2022/11/17 03:55:06;;;;;;;;;;;;;;;-0.52;93.68;98554.95;106428;1304;138949;-53
2022/11/17 03:57:35;;;;;;;10.90;8.50;;;;;;;-0.53;93.60;98548.74;106466;1306;22261;-54
2022/11/17 04:00:07;;;;;;;11.30;8.10;;;;;;;-0.55;93.61;98544.59;106350;1305;141564;-54
2022/11/17 04:02:40;;;;;;;10.80;8.00;;;;;;;-0.57;93.39;98542.13;106469;1301;22158;-54
2022/11/17 04:05:08;;;;;;;12.40;8.50;;;;;;;-0.57;93.34;98547.43;106529;1299;22151;-54
2022/11/17 04:07:39;;;;;;;11.40;8.50;;;;;;;-0.57;93.41;98544.07;106438;1305;138205;-54
2022/11/17 04:10:08;;;;;;;12.00;8.20;;;;;;;-0.57;93.45;98541.70;106548;1297;22228;-54
2022/11/17 04:18:05;;;;;;;13.80;9.20;;;;;;;-0.61;93.18;98538.38;106449;1305;139010;-53
2022/11/17 04:20:35;;;;;;;13.50;9.30;;;;;;;-0.66;93.16;98530.02;106493;1306;22385;-53
2022/11/17 04:23:06;;;;;;;12.50;9.30;;;;;;;-0.67;92.87;98534.39;106534;1297;22318;-54
2022/11/17 04:28:37;;;;;;;11.80;9.00;;;;;;;-0.64;92.82;98536.69;106413;1306;23075;-54
2022/11/17 04:31:11;;;;;;;12.30;8.80;;;;;;;-0.66;92.91;98538.87;106316;1300;137800;-53
2022/11/17 04:33:40;;;;;;;11.10;7.90;;;;;;;-0.66;93.05;98545.41;106502;1308;22706;-55
2022/11/17 04:36:08;;;;;;;13.60;8.80;;;;;;;-0.66;92.73;98547.18;106372;1308;137983;-53
2022/11/17 04:38:35;;;;;;;11.70;8.70;;;;;;;-0.66;92.83;98547.30;106515;1307;22231;-53
2022/11/17 04:43:49;;;;;;;11.90;8.10;;;;;;;-0.69;92.90;98539.20;106419;1305;124152;-54
2022/11/17 04:46:16;;;;;;;11.50;8.40;;;;;;;-0.66;92.93;98540.55;106489;1308;22250;-54
2022/11/17 04:48:43;;;;;;;13.30;9.40;;;;;;;-0.68;92.76;98540.77;106396;1303;138453;-53
2022/11/17 04:51:10;;;;;;;12.90;9.20;;;;;;;-0.71;92.24;98535.09;106504;1308;22154;-53
2022/11/17 04:53:37;;;;;;;15.50;9.60;;;;;;;-0.73;92.43;98535.82;106414;1306;138572;-54
2022/11/17 04:56:04;;;;;;;;;;;;;;;-0.75;92.48;98540.10;106510;1309;23200;-54
2022/11/17 04:58:30;;;;;;;12.40;8.60;;;;;;;-0.76;92.20;98550.38;106507;1305;22236;-53
2022/11/17 05:01:11;;;;;;;12.10;8.80;;;;;;;-0.77;92.34;98547.75;106390;1306;137812;-54
2022/11/17 05:03:38;;;;;;;13.80;9.00;;;;;;;-0.78;92.26;98547.88;106480;1306;22164;-54
2022/11/17 05:06:04;;;;;;;14.20;10.40;;;;;;;-0.78;92.26;98546.80;106390;1301;139110;-54
2022/11/17 05:08:31;;;;;;;12.70;9.10;;;;;;;-0.77;92.17;98549.02;106518;1306;23084;-54
2022/11/17 05:13:44;;;;;;;12.90;9.40;;;;;;;-0.74;92.21;98559.27;106403;1305;126359;-55
2022/11/17 05:18:56;;;;;;;15.90;9.30;;;;;;;-0.79;91.80;98569.19;106359;1302;138669;-54
2022/11/17 05:21:22;;;;;;;14.20;8.60;;;;;;;-0.80;91.82;98571.58;106491;1291;22123;-54
2022/11/17 05:23:55;;;;;;;;;;;;;;;-0.82;91.68;98572.18;106357;1289;139247;-55
2022/11/17 05:26:26;;;;;;;14.50;10.10;;;;;;;-0.82;91.88;98575.92;106450;1297;22103;-54
2022/11/17 05:28:54;;;;;;;15.10;10.50;;;;;;;-0.82;91.68;98583.42;106404;1284;22261;-54
2022/11/17 05:31:21;;;;;;;14.20;10.30;;;;;;;-0.84;91.47;98591.27;106271;1294;138155;-54
2022/11/17 05:33:48;;;;;;;16.10;10.10;;;;;;;-0.85;91.64;98593.61;106503;1297;22148;-55
2022/11/17 05:36:14;;;;;;;15.10;10.50;;;;;;;-0.86;91.48;98596.27;106367;1303;140501;-55
2022/11/17 05:38:41;;;;;;;12.40;9.50;;;;;;;-0.92;91.29;98591.75;106464;1300;22283;-55
2022/11/17 05:41:08;;;;;;;;;;;;;;;-0.89;91.24;98599.52;106516;1305;22389;-55
2022/11/17 05:43:35;;;;;;;17.40;11.10;;;;;;;-0.91;91.35;98603.64;106395;1296;124646;-54
2022/11/17 05:46:02;;;;;;;16.90;11.10;;;;;;;-0.91;91.32;98612.23;106530;1305;22270;-55
2022/11/17 05:48:29;;;;;;;;;;;;;;;-0.90;91.37;98620.84;106414;1306;139201;-54
2022/11/17 05:50:56;;;;;;;17.70;11.40;;;;;;;-0.88;91.44;98627.54;106541;1296;22206;-54
2022/11/17 05:53:23;;;;;;;;;;;;;;;-0.92;91.41;98620.59;106476;1299;22379;-54
2022/11/17 05:55:50;;;;;;;17.10;10.90;;;;;;;-0.88;91.62;98625.98;106498;1306;125311;-54
2022/11/17 05:58:18;;;;;;;;;;;;;;;-0.90;91.37;98620.30;106474;1303;22386;-54
2022/11/17 06:00:45;;;;;;;18.70;11.70;;;;;;;-0.89;91.76;98611.33;106433;1306;125075;-54
2022/11/17 06:03:15;;;;;;;;;;;;;;;-0.90;91.30;98609.81;106425;1299;22359;-53
2022/11/17 06:05:42;;;;;;;17.10;10.90;;;;;;;-0.92;91.31;98600.72;106348;1305;125076;-54
2022/11/17 06:08:09;;;;;;;;;;;;;;;-0.93;91.33;98591.71;106526;1305;22341;-54
2022/11/17 06:10:36;;;;;;;20.00;12.30;;;;;;;-0.95;91.17;98582.08;106528;1307;22109;-54
2022/11/17 06:13:03;;;;;;;;;;;;;;;-0.98;90.96;98572.08;106386;1308;138685;-54
2022/11/17 06:15:29;;;;;;;17.70;11.70;;;;;;;-1.01;91.40;98567.13;106650;1309;22282;-54
2022/11/17 06:18:00;;;;;;;;;;;;;;;-1.04;91.50;98562.36;106535;1303;139345;-53
2022/11/17 06:20:33;;;;;;;21.90;12.70;;;;;;;-1.06;91.67;98562.07;106582;1300;22305;-53
2022/11/17 06:23:01;;;;;;;20.00;11.60;;;;;;;-1.09;91.66;98558.52;106677;1308;22208;-54
2022/11/17 06:25:28;;;;;;;18.50;10.90;;;;;;;-1.12;91.82;98561.45;106501;1309;138957;-53
2022/11/17 06:27:55;;;;;;;;;;;;;;;-1.15;91.94;98565.34;106663;1305;22401;-53
2022/11/17 06:30:21;;;;;;;18.90;11.40;;;;;;;-1.17;91.81;98567.59;106638;1299;125316;-54
2022/11/17 06:32:48;;;;;;;17.20;11.60;;;;;;;-1.19;91.81;98572.48;106709;1304;22229;-54
2022/11/17 06:35:15;;;;;;;24.80;13.90;;;;;;;-1.19;91.83;98577.25;106606;1302;22142;-54
2022/11/17 06:37:42;;;;;;;;;;;;;;;-1.20;92.00;98584.81;106455;1305;139471;-54
2022/11/17 06:40:10;;;;;;;20.30;11.90;;;;;;;-1.21;91.98;98578.81;106643;1292;22156;-55
2022/11/17 06:45:26;;;;;;;21.10;11.40;;;;;;;-1.21;91.77;98574.08;106599;1306;22868;-54
2022/11/17 06:47:52;;;;;;;;;;;;;;;-1.21;91.83;98575.81;106613;1303;138318;-54
2022/11/17 06:50:19;;;;;;;18.20;11.10;;;;;;;-1.22;91.84;98572.15;106648;1303;22098;-54
2022/11/17 06:52:46;;;;;;;;;;;;;;;-1.23;91.74;98568.11;106600;1304;23162;-54
2022/11/17 06:55:13;;;;;;;18.90;12.30;;;;;;;-1.24;91.82;98574.03;106406;1305;124375;-54
2022/11/17 06:57:39;;;;;;;;;;;;;;;-1.25;91.73;98572.06;102266;1296;25210;-53
2022/11/17 07:00:07;;;;;;;18.00;10.90;;;;;;;-1.33;91.84;98562.11;102294;1294;125502;-52
2022/11/17 07:02:35;;;;;;;20.20;12.80;;;;;;;-1.34;91.55;98558.30;106595;1303;22145;-53
2022/11/17 07:05:03;;;;;;;18.50;12.40;;;;;;;-1.30;91.76;98563.39;106594;1286;22218;-53
2022/11/17 07:07:29;;;;;;;18.40;11.80;;;;;;;-1.34;91.67;98559.41;106564;1288;138442;-54
2022/11/17 07:09:56;;;;;;;;;;;;;;;-1.32;91.81;98566.15;106673;1295;22454;-53
2022/11/17 07:12:23;;;;;;;18.10;12.20;;;;;;;-1.35;92.14;98564.71;106574;1303;124017;-53
2022/11/17 07:14:50;;;;;;;19.10;12.00;;;;;;;-1.34;92.53;98564.14;106640;1305;22242;-54
2022/11/17 07:17:16;;;;;;;;;;;;;;;-1.33;92.55;98563.81;106605;1305;22524;-54
2022/11/17 07:19:43;;;;;;;19.10;11.40;;;;;;;-1.33;92.63;98561.39;106646;1304;124774;-53
2022/11/17 07:22:10;;;;;;;;;;;;;;;-1.32;92.41;98567.69;106641;1303;23178;-53
2022/11/17 07:24:36;;;;;;;20.40;12.70;;;;;;;-1.31;92.10;98565.17;106515;1306;124218;-53
2022/11/17 07:27:05;;;;;;;;;;;;;;;-1.33;91.92;98566.60;106771;1303;22392;-54
2022/11/17 07:29:32;;;;;;;17.00;10.90;;;;;;;-1.34;91.75;98570.67;106668;1298;22423;-53
2022/11/17 07:31:58;;;;;;;;;;;;;;;-1.34;91.79;98569.08;106561;1302;137913;-53
2022/11/17 07:34:25;;;;;;;19.00;11.70;;;;;;;-1.35;92.00;98566.31;106769;1302;22201;-54
2022/11/17 07:36:52;;;;;;;19.10;11.80;;;;;;;-1.34;91.70;98565.45;106631;1294;138834;-54
2022/11/17 07:39:18;;;;;;;19.30;11.50;;;;;;;-1.32;92.02;98573.14;106735;1294;22793;-54
2022/11/17 07:41:47;;;;;;;20.30;11.20;;;;;;;-1.33;91.91;98569.27;106530;1302;138148;-54
2022/11/17 07:44:14;;;;;;;15.60;10.50;;;;;;;-1.34;91.83;98569.48;106744;1302;22847;-53
2022/11/17 07:46:41;;;;;;;17.70;10.80;;;;;;;-1.35;91.83;98569.89;106728;1303;22191;-53
2022/11/17 07:49:07;;;;;;;15.20;11.20;;;;;;;-1.35;91.53;98573.09;106603;1303;138679;-53
2022/11/17 07:51:34;;;;;;;18.10;11.40;;;;;;;-1.40;91.50;98570.45;106728;1302;22232;-54
2022/11/17 07:54:01;;;;;;;;;;;;;;;-1.35;91.19;98586.90;106663;1302;138792;-53
2022/11/17 07:56:27;;;;;;;19.60;10.90;;;;;;;-1.34;91.44;98587.89;106722;1303;22874;-53
2022/11/17 07:58:54;;;;;;;;;;;;;;;-1.32;91.58;98590.57;106777;1282;22321;-53
2022/11/17 08:01:21;;;;;;;20.30;11.60;;;;;;;-1.31;91.47;98596.13;106565;1304;125258;-53
2022/11/17 08:03:48;;;;;;;;;;;;;;;-1.29;91.59;98598.50;106632;1302;23526;-53
2022/11/17 08:06:15;;;;;;;32.50;17.90;;;;;;;-1.27;91.46;98595.36;106583;1303;124402;-52
2022/11/17 08:08:42;;;;;;;19.10;12.40;;;;;;;-1.26;91.21;98592.41;106668;1302;22216;-54
2022/11/17 08:11:10;;;;;;;17.50;11.60;;;;;;;-1.24;91.14;98594.79;106692;1302;22189;-54
2022/11/17 08:13:38;;;;;;;17.80;11.10;;;;;;;-1.22;91.06;98590.77;106451;1305;138528;-54
2022/11/17 08:16:05;;;;;;;18.00;12.10;;;;;;;-1.19;91.18;98586.42;106537;1294;22223;-54
2022/11/17 08:18:32;;;;;;;20.70;12.40;;;;;;;-1.20;90.98;98576.92;106583;1302;138698;-54
2022/11/17 08:21:04;;;;;;;17.50;12.00;;;;;;;-1.15;91.23;98578.42;106635;1304;22228;-55
2022/11/17 08:23:31;;;;;;;22.00;13.10;;;;;;;-1.15;91.04;98575.92;106709;1302;22149;-55
2022/11/17 08:25:58;;;;;;;;;;;;;;;-1.14;90.77;98572.38;105026;1299;138976;-52
2022/11/17 08:28:25;;;;;;;17.10;10.80;;;;;;;-1.12;91.10;98571.19;106370;1310;22140;-54
2022/11/17 08:30:52;;;;;;;22.00;12.90;;;;;;;-1.12;90.60;98570.45;106569;1302;139861;-55
2022/11/17 08:33:19;;;;;;;21.30;14.00;;;;;;;-1.09;91.06;98574.94;106560;1303;22280;-55
2022/11/17 08:35:46;;;;;;;16.80;12.20;;;;;;;-1.07;91.10;98571.77;106580;1302;139086;-54
2022/11/17 08:38:14;;;;;;;;;;;;;;;-1.08;90.82;98568.85;106626;1303;22426;-54
2022/11/17 08:40:41;;;;;;;;;;;;;;;-1.10;90.65;98566.88;106591;1304;22361;-55
2022/11/17 08:43:07;;;;;;;23.30;11.50;;;;;;;-1.12;90.71;98566.16;106597;1293;126478;-54
2022/11/17 08:45:34;;;;;;;22.60;13.60;;;;;;;-1.13;90.72;98562.77;106569;1305;22397;-54
2022/11/17 08:48:01;;;;;;;;;;;;;;;-1.17;90.57;98552.24;106571;1302;138901;-55
2022/11/17 08:50:27;;;;;;;18.90;12.00;;;;;;;-1.13;90.69;98556.75;106559;1306;22126;-55
2022/11/17 08:52:54;;;;;;;20.40;13.40;;;;;;;-1.15;90.40;98550.74;106620;1298;22325;-54
2022/11/17 08:55:21;;;;;;;;;;;;;;;-1.17;90.63;98545.73;106490;1298;139110;-55
2022/11/17 08:57:48;;;;;;;19.60;13.80;;;;;;;-1.21;91.15;98539.83;106641;1288;22236;-54
2022/11/17 09:00:15;;;;;;;;;;;;;;;-1.23;91.07;98541.72;106625;1303;138284;-53
2022/11/17 09:02:42;;;;;;;17.60;11.60;;;;;;;-1.24;91.60;98541.11;106636;1288;22264;-54
2022/11/17 09:05:08;;;;;;;17.80;11.80;;;;;;;-1.25;91.70;98539.66;106569;1291;22111;-54
2022/11/17 09:07:35;;;;;;;;;;;;;;;-1.26;91.72;98538.18;106600;1302;138340;-54
2022/11/17 09:10:03;;;;;;;20.70;13.40;;;;;;;-1.24;91.73;98544.55;106580;1304;22209;-53
2022/11/17 09:12:30;;;;;;;21.30;14.10;;;;;;;-1.23;91.81;98545.95;106400;1292;140250;-54
2022/11/17 09:14:56;;;;;;;;;;;;;;;-1.19;91.68;98548.43;106542;1290;22432;-54
2022/11/17 09:17:23;;;;;;;19.60;12.40;;;;;;;-1.22;91.70;98531.98;106610;1302;22238;-55
2022/11/17 09:19:50;;;;;;;19.50;12.50;;;;;;;-1.14;91.33;98544.33;106597;1302;139559;-54
2022/11/17 09:22:16;;;;;;;22.40;13.60;;;;;;;-1.13;91.10;98535.87;106559;1303;22594;-55
2022/11/17 09:24:43;;;;;;;20.80;13.60;;;;;;;-1.11;90.74;98532.99;106482;1289;139512;-55
2022/11/17 09:27:10;;;;;;;20.90;13.10;;;;;;;-1.10;90.90;98532.50;106573;1302;22114;-55
2022/11/17 09:29:37;;;;;;;19.60;11.80;;;;;;;-1.08;90.83;98534.80;106505;1303;139132;-55
2022/11/17 09:32:04;;;;;;;51.40;25.90;;;;;;;-1.07;90.41;98529.05;106624;1302;22247;-56
2022/11/17 09:34:30;;;;;;;;;;;;;;;-1.09;90.55;98524.36;106752;1302;22382;-56
2022/11/17 09:36:57;;;;;;;23.40;12.70;;;;;;;-1.09;90.46;98520.95;106618;1302;124988;-55
2022/11/17 09:39:24;;;;;;;18.00;11.50;;;;;;;-1.09;90.27;98522.18;106585;1303;23003;-55
2022/11/17 09:41:51;;;;;;;18.10;12.30;;;;;;;-1.09;90.15;98518.02;106484;1305;139883;-56
2022/11/17 09:44:27;;;;;;;20.80;12.70;;;;;;;-1.14;90.44;98505.08;106455;1302;22449;-56
2022/11/17 09:47:18;;;;;;;18.50;12.00;;;;;;;-1.08;90.34;98512.88;106686;1302;22112;-56
2022/11/17 09:50:11;;;;;;;19.80;12.40;;;;;;;-1.07;90.29;98512.92;106555;1303;138200;-56
2022/11/17 09:52:53;;;;;;;20.80;13.50;;;;;;;-1.09;90.04;98517.48;106604;1288;22118;-56
2022/11/17 09:55:23;;;;;;;18.80;12.30;;;;;;;-1.14;89.96;98510.38;106455;1297;138875;-56
2022/11/17 09:58:07;;;;;;;20.30;13.30;;;;;;;-1.09;90.00;98524.68;106572;1281;22354;-56
2022/11/17 10:00:34;;;;;;;22.30;12.40;;;;;;;-1.08;90.28;98525.55;106520;1303;138647;-56
2022/11/17 10:03:01;;;;;;;;;;;;;;;-1.08;90.05;98519.71;106543;1303;22346;-56
2022/11/17 10:05:29;;;;;;;21.70;12.20;;;;;;;-1.08;89.95;98516.66;106660;1294;22610;-56
2022/11/17 10:07:59;;;;;;;19.00;12.90;;;;;;;-1.10;89.87;98513.42;106477;1302;139068;-56
2022/11/17 10:10:38;;;;;;;21.50;12.80;;;;;;;-1.12;89.68;98498.57;106497;1302;22201;-56
2022/11/17 10:13:08;;;;;;;24.40;13.80;;;;;;;-1.13;90.02;98497.21;106382;1302;138716;-56
2022/11/17 10:15:46;;;;;;;21.50;13.20;;;;;;;-1.12;89.83;98496.48;106529;1302;22156;-56
2022/11/17 10:18:13;;;;;;;22.60;13.90;;;;;;;-1.10;89.82;98495.82;106557;1302;138600;-57
2022/11/17 10:20:41;;;;;;;22.30;12.70;;;;;;;-1.11;90.02;98491.66;106508;1302;22165;-54
2022/11/17 10:23:16;;;;;;;31.70;19.30;;;;;;;-1.12;90.14;98489.23;106689;1303;22156;-54
2022/11/17 10:25:45;;;;;;;25.70;14.90;;;;;;;-1.11;90.13;98487.30;106494;1302;139960;-54
2022/11/17 10:28:26;;;;;;;18.60;12.90;;;;;;;-1.10;90.07;98487.23;106561;1296;22319;-57
2022/11/17 10:31:00;;;;;;;22.00;13.70;;;;;;;-1.08;90.19;98489.13;106591;1295;139984;-56
2022/11/17 10:33:47;;;;;;;21.50;13.30;;;;;;;-1.07;90.02;98489.12;106569;1273;22233;-56
2022/11/17 10:36:29;;;;;;;21.30;13.80;;;;;;;-1.09;89.90;98483.61;106429;1302;138404;-57
2022/11/17 10:38:58;;;;;;;22.20;14.60;;;;;;;-1.10;89.61;98486.29;106618;1303;23095;-56
2022/11/17 10:41:27;;;;;;;21.90;14.10;;;;;;;-1.12;89.89;98485.63;106585;1303;22120;-55
2022/11/17 10:44:01;;;;;;;57.10;30.50;;;;;;;-1.14;89.93;98489.32;106512;1302;138466;-54
2022/11/17 10:46:28;;;;;;;23.70;15.20;;;;;;;-1.16;90.01;98493.50;106525;1290;22159;-54
2022/11/17 10:49:22;;;;;;;22.40;13.30;;;;;;;-1.18;90.00;98489.59;106510;1303;139999;-53
2022/11/17 10:52:02;;;;;;;19.90;13.30;;;;;;;-1.20;90.04;98484.54;106460;1302;22123;-53
2022/11/17 10:54:29;;;;;;;22.50;13.40;;;;;;;-1.20;90.26;98481.09;106533;1296;138664;-54
2022/11/17 10:56:57;;;;;;;;;;;;;;;-1.20;90.22;98480.38;106608;1302;22339;-53
2022/11/17 10:59:29;;;;;;;26.60;13.10;;;;;;;-1.21;90.15;98478.54;106463;1299;23073;-54
2022/11/17 11:01:55;;;;;;;22.80;15.00;;;;;;;-1.21;90.35;98478.37;106588;1303;138381;-53
2022/11/17 11:04:35;;;;;;;;;;;;;;;-1.20;90.27;98480.80;106475;1302;22431;-57
2022/11/17 11:07:12;;;;;;;20.10;12.70;;;;;;;-1.21;90.34;98482.89;106452;1297;124952;-54
2022/11/17 11:09:49;;;;;;;22.90;14.00;;;;;;;-1.24;90.26;98483.88;106603;1303;22267;-54
2022/11/17 11:12:20;;;;;;;22.90;14.60;;;;;;;-1.24;90.15;98477.76;106529;1296;139991;-54
2022/11/17 11:14:50;;;;;;;23.40;13.70;;;;;;;-1.25;90.32;98481.41;106575;1297;22187;-55
2022/11/17 11:17:16;;;;;;;20.10;12.80;;;;;;;-1.26;90.44;98478.49;102755;1288;26824;-54
2022/11/17 11:19:45;;;;;;;;;;;;;;;-1.26;90.33;98475.16;101818;1291;138262;-54
2022/11/17 11:22:31;;;;;;;21.20;14.00;;;;;;;-1.28;90.39;98477.25;102173;1288;25247;-54
2022/11/17 11:25:24;;;;;;;22.10;14.60;;;;;;;-1.30;90.58;98477.70;102237;1297;138074;-54
2022/11/17 11:28:00;;;;;;;23.10;15.20;;;;;;;-1.31;90.33;98479.54;102228;1290;22515;-54
2022/11/17 11:30:27;;;;;;;22.70;13.60;;;;;;;-1.32;90.20;98483.77;106309;1295;138889;-55
2022/11/17 11:33:12;;;;;;;;;;;;;;;-1.34;90.36;98482.46;106512;1302;22372;-55
2022/11/17 11:36:10;;;;;;;21.10;12.20;;;;;;;-1.36;90.33;98486.98;106547;1288;126754;-55
2022/11/17 11:38:46;;;;;;;21.60;13.80;;;;;;;-1.37;90.56;98482.42;106534;1302;22127;-55
2022/11/17 11:41:34;;;;;;;22.70;13.90;;;;;;;-1.38;90.15;98476.61;106657;1300;22163;-55
2022/11/17 11:44:01;;;;;;;23.20;13.60;;;;;;;-1.38;90.56;98477.11;106303;1309;22138;-55
2022/11/17 11:46:47;;;;;;;;;;;;;;;-1.39;90.30;98481.95;106743;1302;22351;-55
2022/11/17 11:49:39;;;;;;;22.10;13.50;;;;;;;-1.39;90.39;98484.59;106563;1303;124789;-55
2022/11/17 11:52:10;;;;;;;22.20;13.10;;;;;;;-1.37;90.57;98478.89;106054;1297;22184;-55
2022/11/17 11:54:50;;;;;;;20.30;13.40;;;;;;;-1.39;90.56;98471.36;106027;1310;138290;-55
2022/11/17 11:57:17;;;;;;;22.50;13.10;;;;;;;-1.32;90.79;98476.46;102204;1300;24473;-53
2022/11/17 12:00:19;;;;;;;18.70;12.70;;;;;;;-1.32;90.56;98467.79;105994;1311;138730;-54
2022/11/17 12:02:51;;;;;;;19.20;12.20;;;;;;;-1.33;90.35;98464.75;106067;1310;22205;-54
2022/11/17 12:05:18;;;;;;;20.30;12.90;;;;;;;-1.35;90.17;98459.27;106068;1289;22158;-54
2022/11/17 12:08:00;;;;;;;26.60;16.00;;;;;;;-1.35;90.07;98456.16;105991;1311;138595;-54
2022/11/17 12:10:36;;;;;;;23.00;15.50;;;;;;;-1.36;90.39;98449.99;106082;1286;23105;-54
2022/11/17 12:13:03;;;;;;;25.30;14.30;;;;;;;-1.35;90.26;98452.13;105999;1310;139345;-54
2022/11/17 12:15:32;;;;;;;18.10;11.50;;;;;;;-1.34;90.29;98445.46;106069;1310;22476;-54
2022/11/17 12:18:25;;;;;;;20.20;13.10;;;;;;;-1.34;90.24;98444.36;105962;1303;139095;-55